Time;durP1;ratioP1;P1;durP2;ratioP2;P2;SDS_P1;SDS_P2;PMS_P1;PMS_P2;Temp;Humidity;BMP_temperature;BMP_pressure;BME280_temperature;BME280_humidity;BME280_pressure;Samples;Min_cycle;Max_cycle;Signal;HPM_P1;HPM_P2
2023/03/23 00:01:19;;;;;;;5.70;2.95;;;13.50;99.90;;;;;;4938514;29;20027;-81
2023/03/23 00:03:46;;;;;;;4.50;3.38;;;13.50;99.90;;;;;;4931620;29;20051;-80
2023/03/23 00:06:16;;;;;;;5.20;3.20;;;13.50;99.90;;;;;;4935573;29;20110;-81
2023/03/23 00:08:46;;;;;;;4.00;3.03;;;13.60;99.90;;;;;;4931863;29;20403;-80
2023/03/23 00:11:20;;;;;;;5.93;3.28;;;13.50;99.90;;;;;;4931319;29;20514;-80
2023/03/23 00:13:50;;;;;;;5.80;3.60;;;13.60;99.90;;;;;;4925962;29;20059;-80
2023/03/23 00:16:17;;;;;;;4.97;3.40;;;13.60;99.90;;;;;;4931832;29;20020;-80
2023/03/23 00:18:52;;;;;;;4.57;3.05;;;13.60;99.90;;;;;;4931724;29;20094;-78
2023/03/23 00:21:25;;;;;;;5.15;3.22;;;13.70;99.90;;;;;;4930687;29;20026;-81
2023/03/23 00:23:53;;;;;;;7.93;3.15;;;13.70;99.90;;;;;;4935175;29;20086;-79
2023/03/23 00:26:19;;;;;;;4.13;3.65;;;13.60;99.90;;;;;;4936289;29;20028;-79
2023/03/23 00:28:46;;;;;;;5.20;3.10;;;13.60;99.90;;;;;;4934397;29;20071;-82
2023/03/23 00:31:13;;;;;;;4.68;2.95;;;13.60;99.90;;;;;;4930070;29;21298;-80
2023/03/23 00:33:42;;;;;;;4.05;3.15;;;13.60;99.90;;;;;;4934012;29;20157;-82
2023/03/23 00:36:10;;;;;;;7.63;3.53;;;13.50;99.90;;;;;;4933245;29;20111;-81
2023/03/23 00:38:37;;;;;;;5.82;3.08;;;13.60;99.90;;;;;;4927843;29;20058;-82
2023/03/23 00:41:04;;;;;;;5.25;3.10;;;13.60;99.90;;;;;;4930775;28;20056;-82
2023/03/23 00:43:31;;;;;;;4.38;3.00;;;13.60;99.90;;;;;;4938252;29;20035;-80
2023/03/23 00:46:00;;;;;;;3.80;3.10;;;13.60;99.90;;;;;;4930722;29;20027;-80
2023/03/23 00:48:29;;;;;;;3.30;2.97;;;13.60;99.90;;;;;;4933371;29;20020;-81
2023/03/23 00:50:55;;;;;;;4.43;3.05;;;13.60;99.90;;;;;;4944318;28;20102;-81
2023/03/23 00:53:21;;;;;;;4.43;3.08;;;13.60;99.90;;;;;;4933349;29;20119;-80
2023/03/23 00:55:49;;;;;;;5.70;3.40;;;13.60;99.90;;;;;;4935760;29;20449;-82
2023/03/23 00:58:15;;;;;;;5.05;3.50;;;13.70;99.90;;;;;;4930264;29;20035;-80
2023/03/23 01:00:41;;;;;;;5.20;3.92;;;13.70;99.90;;;;;;4934266;29;20074;-80
2023/03/23 01:03:11;;;;;;;5.30;3.60;;;13.60;99.90;;;;;;4932593;29;20043;-81
2023/03/23 01:05:39;;;;;;;6.88;3.92;;;13.70;99.90;;;;;;4935203;29;20028;-81
2023/03/23 01:08:06;;;;;;;9.15;4.05;;;13.70;99.90;;;;;;4937385;29;20472;-81
2023/03/23 01:10:33;;;;;;;6.85;3.60;;;13.70;99.90;;;;;;4932679;29;20024;-81
2023/03/23 01:13:02;;;;;;;4.97;4.20;;;13.60;99.90;;;;;;4934191;29;20027;-80
2023/03/23 01:15:29;;;;;;;5.13;3.42;;;13.70;99.90;;;;;;4935934;29;20039;-81
2023/03/23 01:17:55;;;;;;;6.28;3.85;;;13.70;99.90;;;;;;4931494;29;20024;-80
2023/03/23 01:20:21;;;;;;;4.28;3.38;;;13.70;99.90;;;;;;4931453;29;20384;-80
2023/03/23 01:22:46;;;;;;;4.03;3.70;;;13.70;99.90;;;;;;4930172;29;20083;-81
2023/03/23 01:25:14;;;;;;;5.55;3.50;;;13.70;99.90;;;;;;4938318;29;20035;-81
2023/03/23 01:27:40;;;;;;;4.35;3.60;;;13.70;99.90;;;;;;4934825;29;20153;-80
2023/03/23 01:30:10;;;;;;;4.78;4.20;;;13.70;99.90;;;;;;4924809;29;20016;-80
2023/03/23 01:32:36;;;;;;;5.43;4.10;;;13.80;99.90;;;;;;4932151;29;20572;-81
2023/03/23 01:35:02;;;;;;;7.90;3.53;;;13.70;99.90;;;;;;4924956;29;20044;-80
2023/03/23 01:37:27;;;;;;;5.35;4.03;;;13.70;99.90;;;;;;4929091;29;20084;-81
2023/03/23 01:39:54;;;;;;;4.03;3.63;;;13.70;99.90;;;;;;4928789;29;20708;-81
2023/03/23 01:42:30;;;;;;;5.60;4.05;;;13.70;99.90;;;;;;4925023;29;20062;-81
2023/03/23 01:45:18;;;;;;;4.15;3.63;;;13.70;99.90;;;;;;4933813;29;20028;-82
2023/03/23 01:48:02;;;;;;;5.38;4.10;;;13.70;99.90;;;;;;4926746;28;20048;-82
2023/03/23 01:50:34;;;;;;;4.68;3.85;;;13.60;99.90;;;;;;4924956;29;20111;-79
2023/03/23 01:53:01;;;;;;;4.70;3.78;;;13.70;99.90;;;;;;4926259;29;20070;-80
2023/03/23 01:55:28;;;;;;;4.43;3.13;;;13.70;99.90;;;;;;4929091;29;20484;-81
2023/03/23 01:57:56;;;;;;;6.65;3.65;;;13.70;99.90;;;;;;4929828;29;20032;-81
2023/03/23 02:00:22;;;;;;;5.45;3.25;;;13.60;99.90;;;;;;4927681;29;20114;-80
2023/03/23 02:02:49;;;;;;;4.00;3.15;;;13.60;99.90;;;;;;4927500;29;20056;-82
2023/03/23 02:05:28;;;;;;;4.65;3.70;;;13.60;99.90;;;;;;4924080;29;20359;-82
2023/03/23 02:07:58;;;;;;;5.85;3.60;;;13.60;99.90;;;;;;4923975;29;20075;-82
2023/03/23 02:10:24;;;;;;;5.53;3.22;;;13.70;99.90;;;;;;4929414;29;20038;-81
2023/03/23 02:12:50;;;;;;;3.55;3.22;;;13.70;99.90;;;;;;4931920;29;20114;-81
2023/03/23 02:15:16;;;;;;;5.65;3.42;;;13.60;99.90;;;;;;4929292;29;20130;-81
2023/03/23 02:18:06;;;;;;;3.63;3.10;;;13.70;99.90;;;;;;4929567;29;20115;-80
2023/03/23 02:20:49;;;;;;;4.47;3.33;;;13.70;99.90;;;;;;4923674;29;20023;-81
2023/03/23 02:23:41;;;;;;;4.50;3.78;;;13.70;99.90;;;;;;4925991;29;20062;-81
2023/03/23 02:26:21;;;;;;;4.28;3.58;;;13.70;99.90;;;;;;4925554;29;20402;-81
2023/03/23 02:28:56;;;;;;;4.53;3.80;;;13.70;99.90;;;;;;4934593;29;20150;-82
2023/03/23 02:31:38;;;;;;;4.22;3.65;;;13.70;99.90;;;;;;4935996;29;20040;-80
2023/03/23 02:34:34;;;;;;;4.20;3.80;;;13.70;99.90;;;;;;4922890;29;20157;-81
2023/03/23 02:37:08;;;;;;;5.57;4.07;;;13.70;99.90;;;;;;4928323;29;20384;-81
2023/03/23 02:39:37;;;;;;;6.78;4.68;;;13.80;99.90;;;;;;4919929;29;20040;-81
2023/03/23 02:42:07;;;;;;;5.78;3.95;;;13.70;99.90;;;;;;4927263;29;20034;-82
2023/03/23 02:44:36;;;;;;;4.30;3.90;;;13.70;99.90;;;;;;4930810;29;20015;-81
2023/03/23 02:47:07;;;;;;;4.15;3.63;;;13.80;99.90;;;;;;4932491;29;20079;-80
2023/03/23 02:49:36;;;;;;;8.63;4.70;;;13.70;99.90;;;;;;4932134;29;20089;-81
2023/03/23 02:52:14;;;;;;;7.38;3.92;;;13.80;99.90;;;;;;4928270;29;20028;-81
2023/03/23 02:54:42;;;;;;;3.50;3.15;;;13.80;99.90;;;;;;4927798;29;20192;-81
2023/03/23 02:57:08;;;;;;;5.78;4.65;;;13.80;99.90;;;;;;4923524;29;20016;-80
2023/03/23 02:59:34;;;;;;;5.05;4.32;;;13.70;99.90;;;;;;4931066;29;20042;-81
2023/03/23 03:02:36;;;;;;;6.47;3.75;;;13.70;99.90;;;;;;4925254;29;20032;-81
2023/03/23 03:05:40;;;;;;;6.53;4.15;;;13.70;99.90;;;;;;4926879;29;20031;-80
2023/03/23 03:08:14;;;;;;;4.97;4.10;;;13.70;99.90;;;;;;4923483;29;20051;-81
2023/03/23 03:10:43;;;;;;;5.63;3.88;;;13.80;99.90;;;;;;4924652;29;20032;-82
2023/03/23 03:13:25;;;;;;;4.88;3.75;;;13.70;99.90;;;;;;4925779;29;20059;-81
2023/03/23 03:15:54;;;;;;;4.38;3.80;;;13.70;99.90;;;;;;4927821;29;20035;-81
2023/03/23 03:18:30;;;;;;;4.78;3.78;;;13.70;99.90;;;;;;4922704;29;20392;-81
2023/03/23 03:21:02;;;;;;;5.47;4.20;;;13.70;99.90;;;;;;4928755;29;20497;-81
2023/03/23 03:23:28;;;;;;;;;;;13.70;99.90;;;;;;4928547;29;20496;-81
2023/03/23 03:25:57;;;;;;;6.57;3.38;;;13.70;99.90;;;;;;4929101;29;19910;-82
2023/03/23 03:28:26;;;;;;;4.00;3.60;;;13.70;99.90;;;;;;4923581;29;20068;-81
2023/03/23 03:31:00;;;;;;;5.85;3.38;;;13.70;99.90;;;;;;4925894;29;20024;-81
2023/03/23 03:33:30;;;;;;;5.20;3.65;;;13.70;99.90;;;;;;4924130;29;20465;-80
2023/03/23 03:35:59;;;;;;;6.10;3.72;;;13.60;99.90;;;;;;4922106;29;20420;-81
2023/03/23 03:38:25;;;;;;;3.38;3.03;;;13.70;99.90;;;;;;4927220;29;20028;-80
2023/03/23 03:40:51;;;;;;;5.97;3.10;;;13.70;99.90;;;;;;4924717;29;20104;-80
2023/03/23 03:43:17;;;;;;;4.15;2.88;;;13.70;99.90;;;;;;4927657;29;20024;-80
2023/03/23 03:45:44;;;;;;;3.35;2.97;;;13.70;99.90;;;;;;4938320;29;20023;-79
2023/03/23 03:48:10;;;;;;;5.35;2.80;;;13.70;99.90;;;;;;4925881;29;20050;-82
2023/03/23 03:50:36;;;;;;;4.60;2.97;;;13.70;99.90;;;;;;4918454;29;20051;-79
2023/03/23 03:53:02;;;;;;;7.53;2.90;;;13.70;99.90;;;;;;4922798;29;20028;-81
2023/03/23 03:55:28;;;;;;;5.68;2.85;;;13.70;99.90;;;;;;4928540;29;20115;-80
2023/03/23 03:57:55;;;;;;;4.88;2.33;;;13.70;99.90;;;;;;4923592;29;20111;-81
2023/03/23 04:00:22;;;;;;;6.97;3.28;;;13.70;99.90;;;;;;4927547;29;20027;-80
2023/03/23 04:02:54;;;;;;;10.90;3.50;;;13.70;99.90;;;;;;4927116;29;20032;-81
2023/03/23 04:05:21;;;;;;;4.13;2.13;;;13.70;99.90;;;;;;4928859;29;20028;-80
2023/03/23 04:07:49;;;;;;;4.05;2.85;;;13.70;99.90;;;;;;4929667;29;20062;-80
2023/03/23 04:10:15;;;;;;;7.00;2.65;;;13.70;99.90;;;;;;4922859;29;20448;-81
2023/03/23 04:12:41;;;;;;;7.15;2.40;;;13.70;99.90;;;;;;4933521;28;20087;-80
2023/03/23 04:15:08;;;;;;;6.70;2.78;;;13.70;99.90;;;;;;4926170;29;20043;-81
2023/03/23 04:17:35;;;;;;;5.93;2.45;;;13.70;99.90;;;;;;4932211;29;20024;-81
2023/03/23 04:20:06;;;;;;;5.22;2.75;;;13.80;99.90;;;;;;4926726;29;20389;-81
2023/03/23 04:22:31;;;;;;;5.53;2.75;;;13.70;99.90;;;;;;4932675;29;20016;-81
2023/03/23 04:25:02;;;;;;;4.13;2.67;;;13.80;99.90;;;;;;4924527;29;20039;-80
2023/03/23 04:27:28;;;;;;;6.20;2.65;;;13.70;99.90;;;;;;4937090;29;20019;-79
2023/03/23 04:29:57;;;;;;;5.07;3.28;;;13.70;99.90;;;;;;4927306;29;20067;-81
2023/03/23 04:32:24;;;;;;;7.75;2.67;;;13.80;99.90;;;;;;4929829;29;20354;-80
2023/03/23 04:34:50;;;;;;;4.03;2.40;;;13.80;99.90;;;;;;4928392;29;20091;-74
2023/03/23 04:37:16;;;;;;;3.75;2.13;;;13.80;99.90;;;;;;4929461;29;20445;-72
2023/03/23 04:39:45;;;;;;;5.50;2.50;;;13.70;99.90;;;;;;4929795;29;20050;-73
2023/03/23 04:42:11;;;;;;;6.63;2.60;;;13.70;99.90;;;;;;4927223;29;20031;-73
2023/03/23 04:44:36;;;;;;;6.55;2.70;;;13.80;99.90;;;;;;4929092;29;20035;-73
2023/03/23 04:47:02;;;;;;;7.00;2.33;;;13.70;99.90;;;;;;4932200;29;20031;-72
2023/03/23 04:49:29;;;;;;;6.13;2.25;;;13.80;99.90;;;;;;4931885;29;20477;-73
2023/03/23 04:51:56;;;;;;;5.47;2.45;;;13.70;99.90;;;;;;4925933;29;20032;-77
2023/03/23 04:54:22;;;;;;;5.60;2.75;;;13.80;99.90;;;;;;4929248;29;20039;-76
2023/03/23 04:56:48;;;;;;;5.47;2.60;;;13.80;99.90;;;;;;4934086;29;20062;-75
2023/03/23 04:59:14;;;;;;;7.22;2.40;;;13.80;99.90;;;;;;4922637;29;20193;-74
2023/03/23 05:01:45;;;;;;;5.22;2.50;;;13.80;99.90;;;;;;4929748;29;20031;-75
2023/03/23 05:04:16;;;;;;;7.95;2.72;;;13.80;99.90;;;;;;4924742;29;20496;-75
2023/03/23 05:06:44;;;;;;;4.43;2.35;;;13.90;99.90;;;;;;4938316;29;20062;-74
2023/03/23 05:09:09;;;;;;;7.15;2.25;;;13.80;99.90;;;;;;4927086;29;20606;-74
2023/03/23 05:11:35;;;;;;;4.70;2.85;;;13.80;99.90;;;;;;4926443;29;20035;-75
2023/03/23 05:14:03;;;;;;;5.82;2.47;;;13.80;99.90;;;;;;4929305;29;20048;-74
2023/03/23 05:16:30;;;;;;;4.72;2.50;;;13.80;99.90;;;;;;4926707;29;20028;-75
2023/03/23 05:18:57;;;;;;;3.90;2.50;;;13.80;99.90;;;;;;4926719;29;20659;-75
2023/03/23 05:21:23;;;;;;;6.07;2.70;;;13.70;99.90;;;;;;4926944;29;20051;-74
2023/03/23 05:23:54;;;;;;;7.40;2.88;;;13.70;99.90;;;;;;4930559;29;20086;-75
2023/03/23 05:26:20;;;;;;;6.50;2.92;;;13.70;99.90;;;;;;4923974;29;20035;-75
2023/03/23 05:28:48;;;;;;;6.47;2.92;;;13.70;99.90;;;;;;4929516;29;20036;-75
2023/03/23 05:31:13;;;;;;;7.20;3.13;;;13.70;99.90;;;;;;4932566;29;20028;-74
2023/03/23 05:33:39;;;;;;;7.45;2.80;;;13.70;99.90;;;;;;4928798;29;20036;-75
2023/03/23 05:36:06;;;;;;;7.60;2.65;;;13.70;99.90;;;;;;4927346;29;20043;-74
2023/03/23 05:38:32;;;;;;;6.35;2.40;;;13.60;99.90;;;;;;4927794;29;20031;-76
2023/03/23 05:41:03;;;;;;;5.32;2.45;;;13.70;99.90;;;;;;4932345;28;20098;-76
2023/03/23 05:43:30;;;;;;;5.90;2.58;;;13.60;99.90;;;;;;4936822;29;20098;-75
2023/03/23 05:45:55;;;;;;;6.57;2.40;;;13.70;99.90;;;;;;4932769;29;20035;-76
2023/03/23 05:48:21;;;;;;;8.43;2.75;;;13.70;99.90;;;;;;4925437;29;20062;-75
2023/03/23 05:50:47;;;;;;;10.73;2.45;;;13.60;99.90;;;;;;4929889;29;20083;-75
2023/03/23 05:53:12;;;;;;;7.07;2.22;;;13.60;99.90;;;;;;4924745;29;20401;-76
2023/03/23 05:55:38;;;;;;;7.03;2.47;;;13.60;99.90;;;;;;4926889;29;20040;-75
2023/03/23 05:58:04;;;;;;;9.65;3.17;;;13.60;99.90;;;;;;4933510;29;20527;-74
2023/03/23 06:00:30;;;;;;;9.07;2.33;;;13.50;99.90;;;;;;4930552;29;20040;-75
2023/03/23 06:02:57;;;;;;;7.07;2.17;;;13.60;99.90;;;;;;4929839;29;20387;-75
2023/03/23 06:05:23;;;;;;;5.15;2.53;;;13.50;99.90;;;;;;4936391;29;20031;-75
2023/03/23 06:07:49;;;;;;;8.18;2.78;;;13.60;99.90;;;;;;4930960;29;20028;-75
2023/03/23 06:10:16;;;;;;;4.03;1.90;;;13.60;99.90;;;;;;4929940;29;20032;-74
2023/03/23 06:12:42;;;;;;;6.55;1.90;;;13.60;99.90;;;;;;4933569;29;20032;-75
2023/03/23 06:15:09;;;;;;;6.07;2.03;;;13.60;99.90;;;;;;4933651;29;20040;-74
2023/03/23 06:17:36;;;;;;;6.75;2.17;;;13.60;99.90;;;;;;4928069;29;20032;-74
2023/03/23 06:20:04;;;;;;;6.10;2.08;;;13.60;99.90;;;;;;4930897;29;20036;-74
2023/03/23 06:22:30;;;;;;;4.90;1.80;;;13.60;99.90;;;;;;4930677;29;20016;-74
2023/03/23 06:24:57;;;;;;;3.55;1.77;;;13.60;99.90;;;;;;4924695;29;20043;-74
2023/03/23 06:27:24;;;;;;;5.88;1.60;;;13.60;99.90;;;;;;4931763;29;20024;-75
2023/03/23 06:29:50;;;;;;;6.70;2.05;;;13.70;99.90;;;;;;4929176;29;20032;-75
2023/03/23 06:32:15;;;;;;;8.38;2.42;;;13.70;99.90;;;;;;4936599;29;20046;-74
2023/03/23 06:34:43;;;;;;;3.47;1.55;;;13.70;99.90;;;;;;4932094;29;20488;-78
2023/03/23 06:37:09;;;;;;;5.22;2.03;;;13.80;99.90;;;;;;4932208;29;20095;-75
2023/03/23 06:39:36;;;;;;;4.93;1.98;;;13.70;99.90;;;;;;4925673;29;20122;-75
2023/03/23 06:42:02;;;;;;;6.28;2.20;;;13.70;99.90;;;;;;4933224;29;20024;-76
2023/03/23 06:44:29;;;;;;;9.13;2.08;;;13.70;99.90;;;;;;4919986;29;20043;-77
2023/03/23 06:46:55;;;;;;;4.32;1.73;;;13.60;99.90;;;;;;4934267;29;20149;-80
2023/03/23 06:49:20;;;;;;;5.07;2.00;;;13.70;99.90;;;;;;4931581;29;20042;-80
2023/03/23 06:51:46;;;;;;;3.47;1.67;;;13.70;99.90;;;;;;4935453;29;20016;-79
2023/03/23 06:54:12;;;;;;;5.18;2.15;;;13.70;99.90;;;;;;4934783;29;20066;-79
2023/03/23 06:56:37;;;;;;;6.50;2.53;;;13.70;99.90;;;;;;4937627;29;20478;-79
2023/03/23 06:59:03;;;;;;;6.97;2.17;;;13.70;99.90;;;;;;4925840;29;20090;-79
2023/03/23 07:01:29;;;;;;;8.48;1.88;;;13.80;99.90;;;;;;4927031;28;20075;-79
2023/03/23 07:03:58;;;;;;;6.15;2.10;;;13.70;99.90;;;;;;4928967;29;20028;-79
2023/03/23 07:06:25;;;;;;;6.85;2.15;;;13.80;99.90;;;;;;4928926;29;20023;-79
2023/03/23 07:08:50;;;;;;;4.65;2.10;;;13.80;99.90;;;;;;4930771;29;20126;-79
2023/03/23 07:11:16;;;;;;;4.90;2.00;;;13.70;99.90;;;;;;4928733;29;20091;-79
2023/03/23 07:13:42;;;;;;;6.18;2.13;;;13.70;99.90;;;;;;4931486;29;20039;-79
2023/03/23 07:16:08;;;;;;;6.40;1.88;;;13.80;99.90;;;;;;4923118;29;20087;-79
2023/03/23 07:18:35;;;;;;;5.10;2.53;;;13.80;99.90;;;;;;4933101;29;20087;-79
2023/03/23 07:21:00;;;;;;;5.13;2.20;;;13.80;99.90;;;;;;4925614;29;20036;-79
2023/03/23 07:23:26;;;;;;;5.97;1.92;;;13.80;99.90;;;;;;4931422;29;20568;-79
2023/03/23 07:25:53;;;;;;;5.85;2.05;;;13.90;99.90;;;;;;4933137;29;20468;-78
2023/03/23 07:28:19;;;;;;;5.85;2.22;;;13.80;99.90;;;;;;4931753;29;20519;-79
2023/03/23 07:30:45;;;;;;;9.88;2.13;;;13.80;99.90;;;;;;4928697;29;20024;-79
2023/03/23 07:33:12;;;;;;;5.03;2.08;;;13.80;99.90;;;;;;4928530;29;20497;-79
2023/03/23 07:35:38;;;;;;;10.45;2.45;;;13.80;99.90;;;;;;4930595;29;20396;-78
2023/03/23 07:38:06;;;;;;;5.57;2.40;;;13.90;99.90;;;;;;4923719;29;20032;-79
2023/03/23 07:40:34;;;;;;;6.78;2.53;;;13.90;99.90;;;;;;4938686;28;20028;-79
2023/03/23 07:43:02;;;;;;;6.55;1.90;;;13.90;99.90;;;;;;4929080;29;20031;-79
2023/03/23 07:45:28;;;;;;;6.13;2.28;;;14.00;99.90;;;;;;4931536;29;20027;-79
2023/03/23 07:47:54;;;;;;;7.45;2.53;;;13.90;99.90;;;;;;4931659;29;20087;-79
2023/03/23 07:50:24;;;;;;;7.95;2.47;;;13.90;99.90;;;;;;4935188;29;20539;-78
2023/03/23 07:52:59;;;;;;;4.65;1.83;;;13.90;99.90;;;;;;4936063;29;20114;-76
2023/03/23 07:55:27;;;;;;;6.15;2.67;;;13.80;99.90;;;;;;4931567;29;20046;-76
2023/03/23 07:57:53;;;;;;;8.32;2.17;;;13.80;99.90;;;;;;4936807;29;20031;-76
2023/03/23 08:00:23;;;;;;;8.30;2.92;;;13.70;99.90;;;;;;4937689;29;20094;-76
2023/03/23 08:02:52;;;;;;;7.32;2.33;;;13.70;99.90;;;;;;4937662;29;20082;-77
2023/03/23 08:05:20;;;;;;;10.07;2.85;;;13.70;99.90;;;;;;4933419;29;20086;-77
2023/03/23 08:07:47;;;;;;;7.90;2.58;;;13.80;99.90;;;;;;4930621;29;20430;-77
2023/03/23 08:10:14;;;;;;;9.13;2.17;;;13.70;99.90;;;;;;4934787;29;20393;-77
2023/03/23 08:12:41;;;;;;;5.03;1.70;;;13.70;99.90;;;;;;4931384;29;20024;-78
2023/03/23 08:15:09;;;;;;;7.78;1.73;;;13.60;99.90;;;;;;4936685;29;20040;-78
2023/03/23 08:17:36;;;;;;;3.70;1.02;;;13.50;99.90;;;;;;4930324;28;20020;-76
2023/03/23 08:20:08;;;;;;;4.22;1.45;;;13.40;99.90;;;;;;4932083;29;20039;-78
2023/03/23 08:22:35;;;;;;;3.33;1.30;;;13.10;99.90;;;;;;4932257;29;20024;-79
2023/03/23 08:25:03;;;;;;;5.13;1.98;;;13.10;99.90;;;;;;4934103;29;20146;-78
2023/03/23 08:27:29;;;;;;;7.55;1.95;;;13.00;99.90;;;;;;4933899;29;20020;-76
2023/03/23 08:29:54;;;;;;;5.95;2.10;;;12.90;99.90;;;;;;4931697;29;20054;-76
2023/03/23 08:32:20;;;;;;;10.13;2.28;;;12.90;99.90;;;;;;4928392;29;20028;-76
2023/03/23 08:34:46;;;;;;;4.28;1.70;;;12.80;99.90;;;;;;4930162;29;20127;-76
2023/03/23 08:37:12;;;;;;;4.55;1.73;;;12.80;99.90;;;;;;4938816;29;20028;-76
2023/03/23 08:39:38;;;;;;;6.53;1.48;;;12.90;99.90;;;;;;4931656;29;20105;-76
2023/03/23 08:42:03;;;;;;;4.03;1.40;;;12.80;99.90;;;;;;4929539;29;20027;-77
2023/03/23 08:44:29;;;;;;;4.25;1.40;;;12.80;99.90;;;;;;4930486;29;20075;-77
2023/03/23 08:46:56;;;;;;;3.08;1.10;;;12.90;99.90;;;;;;4924169;29;20036;-77
2023/03/23 08:49:23;;;;;;;3.65;1.20;;;12.90;99.90;;;;;;4932064;29;20071;-76
2023/03/23 08:51:49;;;;;;;4.35;1.00;;;13.00;99.90;;;;;;4935682;29;20388;-76
2023/03/23 08:54:16;;;;;;;5.60;1.30;;;13.00;99.90;;;;;;4929995;29;20036;-76
2023/03/23 08:56:42;;;;;;;4.43;0.90;;;12.90;99.90;;;;;;4933125;29;20119;-76
2023/03/23 08:59:09;;;;;;;2.97;0.90;;;13.00;99.90;;;;;;4930317;29;20035;-76
2023/03/23 09:01:34;;;;;;;2.63;0.77;;;13.00;99.90;;;;;;4924718;29;20020;-76
2023/03/23 09:04:00;;;;;;;4.55;1.13;;;13.00;99.90;;;;;;4928997;29;20090;-76
2023/03/23 09:06:27;;;;;;;2.45;0.80;;;13.00;99.90;;;;;;4940564;29;20032;-76
2023/03/23 09:08:55;;;;;;;3.50;1.15;;;13.00;99.90;;;;;;4938447;29;20036;-76
2023/03/23 09:11:21;;;;;;;3.00;0.90;;;13.20;99.90;;;;;;4925518;29;20032;-77
2023/03/23 09:13:47;;;;;;;2.03;0.60;;;13.20;99.90;;;;;;4924977;29;20028;-77
2023/03/23 09:16:14;;;;;;;2.85;0.88;;;13.20;99.90;;;;;;4937729;29;20118;-77
2023/03/23 09:18:40;;;;;;;2.00;1.20;;;13.20;99.90;;;;;;4931369;29;20155;-76
2023/03/23 09:21:06;;;;;;;2.05;1.02;;;13.20;99.90;;;;;;4932508;29;20487;-76
2023/03/23 09:23:33;;;;;;;2.67;0.93;;;13.20;99.90;;;;;;4933917;28;20055;-77
2023/03/23 09:26:03;;;;;;;1.92;0.90;;;13.30;99.90;;;;;;4902342;29;20059;-76
2023/03/23 09:28:29;;;;;;;2.42;1.05;;;13.30;99.90;;;;;;4918993;29;20024;-76
2023/03/23 09:30:57;;;;;;;3.17;0.95;;;13.30;99.90;;;;;;4920257;29;20110;-77
2023/03/23 09:33:23;;;;;;;2.00;0.85;;;13.40;99.90;;;;;;4918089;28;20486;-77
2023/03/23 09:35:49;;;;;;;2.45;0.88;;;13.30;99.90;;;;;;4920118;29;20032;-77
2023/03/23 09:38:15;;;;;;;2.80;1.20;;;13.20;99.90;;;;;;4918910;29;20071;-76
2023/03/23 09:41:01;;;;;;;4.47;1.10;;;13.20;99.90;;;;;;4919191;29;20586;-76
2023/03/23 09:43:55;;;;;;;6.28;1.70;;;13.20;99.90;;;;;;4922600;29;20036;-77
2023/03/23 09:46:52;;;;;;;4.88;1.42;;;13.20;99.90;;;;;;4920340;29;20024;-77
2023/03/23 09:49:30;;;;;;;4.18;1.33;;;13.30;99.90;;;;;;4921771;28;20077;-77
2023/03/23 09:52:02;;;;;;;1.50;0.90;;;13.60;99.90;;;;;;4920074;29;20024;-79
2023/03/23 09:54:35;;;;;;;6.70;1.80;;;14.00;99.90;;;;;;4921213;29;20432;-78
2023/03/23 09:57:01;;;;;;;;;;;14.20;99.90;;;;;;4916811;28;20023;-77
2023/03/23 10:00:06;;;;;;;4.90;1.30;;;14.20;99.90;;;;;;4920445;29;19953;-79
2023/03/23 10:02:42;;;;;;;2.95;1.30;;;14.20;99.90;;;;;;4918961;29;20094;-79
2023/03/23 10:05:47;;;;;;;3.38;1.88;;;14.20;99.90;;;;;;4920003;29;20385;-79
2023/03/23 10:08:18;;;;;;;6.28;1.63;;;14.10;99.90;;;;;;4939085;28;20052;-79
2023/03/23 10:11:02;;;;;;;7.20;2.17;;;14.00;99.90;;;;;;4924306;29;20027;-79
2023/03/23 10:13:45;;;;;;;4.25;1.30;;;13.90;99.90;;;;;;4920648;29;20035;-79
2023/03/23 10:16:17;;;;;;;5.30;1.60;;;13.90;99.90;;;;;;4920823;29;20028;-79
2023/03/23 10:18:52;;;;;;;6.03;1.70;;;13.90;99.90;;;;;;4918056;29;20027;-79
2023/03/23 10:21:22;;;;;;;3.38;1.48;;;13.90;99.90;;;;;;4917475;29;20039;-80
2023/03/23 10:24:03;;;;;;;4.43;2.47;;;14.00;99.90;;;;;;4923251;29;20049;-77
2023/03/23 10:26:56;;;;;;;3.20;1.63;;;14.10;99.90;;;;;;4918578;29;20084;-78
2023/03/23 10:29:31;;;;;;;7.40;2.08;;;14.10;99.90;;;;;;4920665;29;20032;-78
2023/03/23 10:32:13;;;;;;;6.28;2.00;;;14.20;99.90;;;;;;4922361;29;20059;-76
2023/03/23 10:34:57;;;;;;;2.85;1.60;;;14.20;99.90;;;;;;4920233;29;20040;-74
2023/03/23 10:37:28;;;;;;;4.82;1.80;;;14.30;99.90;;;;;;4923555;29;20038;-74
2023/03/23 10:39:58;;;;;;;7.05;2.17;;;14.40;99.90;;;;;;4918024;29;20035;-73
2023/03/23 10:42:28;;;;;;;4.68;1.48;;;14.40;99.90;;;;;;4917978;29;20029;-76
2023/03/23 10:44:56;;;;;;;4.82;1.55;;;14.40;99.90;;;;;;4913506;29;20028;-76
2023/03/23 10:47:23;;;;;;;2.88;1.35;;;14.50;99.90;;;;;;4921359;29;20024;-76
2023/03/23 10:49:55;;;;;;;4.03;1.48;;;14.70;99.90;;;;;;4918810;29;20063;-74
2023/03/23 10:52:40;;;;;;;2.58;1.20;;;15.00;99.90;;;;;;4922855;29;20544;-75
2023/03/23 10:55:12;;;;;;;3.97;1.50;;;15.10;99.90;;;;;;4919447;29;20032;-76
2023/03/23 10:57:40;;;;;;;2.83;1.23;;;15.20;99.90;;;;;;4915812;29;20024;-75
2023/03/23 11:00:26;;;;;;;2.60;1.10;;;15.30;99.90;;;;;;4917846;29;20039;-76
2023/03/23 11:03:00;;;;;;;2.90;1.30;;;15.30;99.90;;;;;;4917683;29;20354;-75
2023/03/23 11:05:39;;;;;;;4.93;1.20;;;15.40;99.90;;;;;;4916604;29;20032;-76
2023/03/23 11:08:13;;;;;;;6.32;1.80;;;15.40;99.90;;;;;;4920620;29;20099;-73
2023/03/23 11:10:47;;;;;;;1.67;1.23;;;15.50;99.90;;;;;;4915963;29;20039;-74
2023/03/23 11:13:15;;;;;;;4.55;2.63;;;15.40;99.90;;;;;;4918763;29;20039;-75
2023/03/23 11:15:44;;;;;;;2.53;1.55;;;15.50;99.90;;;;;;4917970;29;20031;-77
2023/03/23 11:18:13;;;;;;;3.17;1.30;;;15.50;99.90;;;;;;4921328;29;20110;-78
2023/03/23 11:20:44;;;;;;;4.30;2.45;;;15.60;99.90;;;;;;4917710;29;20075;-77
2023/03/23 11:23:23;;;;;;;4.72;2.10;;;15.50;99.90;;;;;;4918288;29;20071;-77
2023/03/23 11:26:15;;;;;;;3.42;1.65;;;15.50;99.90;;;;;;4916069;29;20031;-77
2023/03/23 11:28:59;;;;;;;7.50;1.70;;;15.50;99.90;;;;;;4922532;29;20039;-80
2023/03/23 11:31:52;;;;;;;4.47;1.40;;;15.40;99.90;;;;;;4925445;29;20058;-75
2023/03/23 11:34:22;;;;;;;4.78;1.80;;;15.40;99.90;;;;;;4922598;29;20473;-79
2023/03/23 11:37:12;;;;;;;2.80;1.58;;;15.50;99.90;;;;;;4925445;29;20027;-78
2023/03/23 11:39:57;;;;;;;2.83;1.67;;;15.50;99.90;;;;;;4927866;29;20072;-78
2023/03/23 11:42:52;;;;;;;4.07;1.35;;;15.50;99.90;;;;;;4927793;29;20059;-78
2023/03/23 11:45:18;;;;;;;6.70;1.40;;;15.80;99.90;;;;;;4925374;29;20024;-73
2023/03/23 11:47:59;;;;;;;5.20;2.00;;;15.80;99.90;;;;;;4925991;29;20497;-79
2023/03/23 11:50:32;;;;;;;5.35;1.80;;;15.90;99.90;;;;;;4923909;28;20016;-79
2023/03/23 11:53:04;;;;;;;3.10;1.60;;;15.80;99.90;;;;;;4921794;29;20511;-79
2023/03/23 11:55:53;;;;;;;4.85;1.65;;;16.00;99.90;;;;;;4924855;29;20048;-79
2023/03/23 11:58:21;;;;;;;3.55;1.85;;;15.70;99.90;;;;;;4923778;29;20478;-79
2023/03/23 12:00:58;;;;;;;4.80;1.95;;;15.70;99.90;;;;;;4943477;28;20023;-78
2023/03/23 12:04:18;;;;;;;4.43;1.52;;;15.60;99.90;;;;;;4924641;29;20031;-79
2023/03/23 12:07:14;;;;;;;4.13;2.03;;;15.70;99.90;;;;;;4962658;28;20034;-79
2023/03/23 12:09:51;;;;;;;2.90;1.83;;;15.70;99.90;;;;;;4927917;28;20623;-79
2023/03/23 12:12:35;;;;;;;4.40;1.75;;;15.80;99.90;;;;;;4928411;28;20103;-79
2023/03/23 12:15:16;;;;;;;3.20;1.90;;;15.90;99.90;;;;;;4921448;29;20032;-78
2023/03/23 12:18:01;;;;;;;2.55;1.50;;;15.90;99.90;;;;;;4922739;28;20023;-79
2023/03/23 12:20:50;;;;;;;5.72;2.20;;;16.20;99.90;;;;;;4924667;29;20032;-77
2023/03/23 12:23:29;;;;;;;6.60;2.30;;;16.50;99.90;;;;;;4926030;29;20027;-78
2023/03/23 12:26:26;;;;;;;2.58;1.92;;;16.60;99.90;;;;;;4925445;29;20024;-79
2023/03/23 12:28:54;;;;;;;5.20;1.73;;;16.60;99.90;;;;;;4924142;29;20032;-78
2023/03/23 12:31:20;;;;;;;7.82;2.10;;;16.70;99.90;;;;;;4923935;29;22330;-78
2023/03/23 12:33:59;;;;;;;4.80;1.95;;;16.70;99.90;;;;;;4922353;29;20563;-78
2023/03/23 12:36:25;;;;;;;6.20;2.53;;;16.80;99.90;;;;;;4925134;29;20035;-78
2023/03/23 12:39:15;;;;;;;10.98;2.70;;;16.80;99.90;;;;;;4921203;29;20441;-79
2023/03/23 12:42:01;;;;;;;8.00;2.50;;;16.80;99.90;;;;;;4918358;29;20036;-79
2023/03/23 12:44:58;;;;;;;8.23;2.97;;;16.70;99.90;;;;;;4920756;29;20388;-79
2023/03/23 12:48:05;;;;;;;8.65;2.30;;;16.70;99.90;;;;;;4918636;29;20043;-79
2023/03/23 12:50:42;;;;;;;6.63;2.58;;;16.70;99.90;;;;;;4921592;29;20389;-79
2023/03/23 12:53:21;;;;;;;6.05;2.50;;;16.80;99.90;;;;;;4919056;29;20052;-79
2023/03/23 12:56:08;;;;;;;8.95;2.72;;;16.70;99.90;;;;;;4917916;29;20071;-78
2023/03/23 12:58:41;;;;;;;8.82;3.00;;;16.70;99.90;;;;;;4924087;29;20059;-79
2023/03/23 13:01:13;;;;;;;5.90;2.70;;;16.70;99.90;;;;;;4917109;29;20107;-79
2023/03/23 13:03:52;;;;;;;6.15;3.20;;;16.80;99.90;;;;;;4915458;29;20016;-79
2023/03/23 13:06:30;;;;;;;7.45;3.67;;;16.90;99.90;;;;;;4922605;29;20432;-79
2023/03/23 13:09:02;;;;;;;9.88;4.25;;;16.90;99.90;;;;;;4922824;29;20029;-79